Terminal Aerodrome Forecast
Issued by NWS

Home | Current Version | Previous Version | Text Only | Print | Product List | Glossary Off
Versions: 1 2 3 4 5 6 7 8 9 10 11 12 13 14 15 16 17 18

000
FTUS43 KGRB 271530 AAB
TAFCWA
TAF AMD
KCWA 271530Z 2716/2812 03005KT P6SM VCSH SCT040 OVC080
     FM272000 34006KT 4SM SHRA VCTS BKN040CB
     FM280300 07004KT P6SM VCSH BKN025 OVC040
     FM280600 09006KT 5SM BR VCSH BKN020
     FM280900 09005KT 3SM BR BKN010 OVC018=

USA.gov is the U.S. government's official web portal to all federal, state and local government web resources and services.